Time;durP1;ratioP1;P1;durP2;ratioP2;P2;SDS_P1;SDS_P2;PMS_P1;PMS_P2;Temp;Humidity;BMP_temperature;BMP_pressure;BME280_temperature;BME280_humidity;BME280_pressure;Samples;Min_cycle;Max_cycle;Signal;HPM_P1;HPM_P2
2023/09/18 04:56:28;;;;;;;11.48;10.40;;;21.20;99.90;;;;;;5364803;23;20111;-89
2023/09/18 04:58:54;;;;;;;11.73;10.73;;;21.30;99.90;;;;;;4885781;29;20116;-89
2023/09/18 05:01:21;;;;;;;11.75;10.52;;;21.30;99.90;;;;;;4884923;29;20549;-83
2023/09/18 05:03:49;;;;;;;11.80;10.80;;;21.40;99.90;;;;;;4883709;29;20097;-82
2023/09/18 05:06:16;;;;;;;14.55;11.40;;;21.40;99.90;;;;;;4876827;29;20053;-81
2023/09/18 05:08:44;;;;;;;12.73;11.55;;;21.50;99.90;;;;;;4865154;29;20116;-81
2023/09/18 05:11:11;;;;;;;13.35;12.05;;;21.60;99.90;;;;;;4865062;29;20049;-81
2023/09/18 05:13:37;;;;;;;14.93;13.43;;;21.90;99.90;;;;;;4864799;29;20040;-81
2023/09/18 05:16:04;;;;;;;14.68;13.23;;;22.10;99.90;;;;;;4865027;29;20574;-81
2023/09/18 05:18:30;;;;;;;14.50;13.02;;;22.30;99.90;;;;;;4865048;29;20051;-82
2023/09/18 05:20:56;;;;;;;14.35;13.30;;;22.50;99.90;;;;;;4881597;29;20113;-81
2023/09/18 05:23:23;;;;;;;15.60;14.05;;;22.70;99.90;;;;;;4864761;29;20085;-81
2023/09/18 05:25:49;;;;;;;15.75;14.45;;;23.20;99.90;;;;;;4881592;29;20029;-81
2023/09/18 05:28:16;;;;;;;16.88;15.48;;;23.60;99.90;;;;;;4881726;29;20418;-80
2023/09/18 05:30:42;;;;;;;17.40;15.88;;;23.90;99.90;;;;;;4864904;29;20017;-81
2023/09/18 05:33:08;;;;;;;17.55;16.08;;;24.10;99.90;;;;;;4888108;29;20029;-81
2023/09/18 05:35:44;;;;;;;17.88;16.42;;;24.20;99.90;;;;;;4872337;29;20547;-81
2023/09/18 05:38:17;;;;;;;18.88;17.35;;;24.40;99.90;;;;;;4866268;29;20025;-87
2023/09/18 05:40:44;;;;;;;20.23;18.48;;;24.80;99.90;;;;;;4867225;29;20039;-88
2023/09/18 05:43:11;;;;;;;20.45;19.05;;;25.20;99.90;;;;;;4866180;29;20029;-79
2023/09/18 05:45:38;;;;;;;20.63;19.13;;;26.00;99.90;;;;;;4881405;29;20064;-79
2023/09/18 05:48:06;;;;;;;23.20;20.90;;;26.70;99.90;;;;;;4881143;29;20037;-79
2023/09/18 05:50:35;;;;;;;22.25;20.65;;;27.10;99.90;;;;;;4881334;29;20025;-87
2023/09/18 05:53:03;;;;;;;22.30;20.48;;;27.80;99.90;;;;;;4865400;29;20048;-88
2023/09/18 05:55:39;;;;;;;20.40;18.52;;;28.20;99.90;;;;;;4850493;29;20398;-88
2023/09/18 05:58:07;;;;;;;21.00;19.48;;;28.30;99.90;;;;;;4850243;29;20504;-87
2023/09/18 06:00:34;;;;;;;22.58;20.73;;;28.60;99.90;;;;;;4865443;29;20070;-88
2023/09/18 06:03:00;;;;;;;22.15;20.55;;;28.60;99.90;;;;;;4850620;29;20123;-88
2023/09/18 06:05:26;;;;;;;24.42;22.27;;;28.30;99.90;;;;;;4866695;29;20107;-89
2023/09/18 06:07:53;;;;;;;23.63;21.77;;;28.40;99.90;;;;;;4849796;29;20041;-88
2023/09/18 06:10:20;;;;;;;24.63;22.60;;;28.40;99.90;;;;;;4865383;29;20372;-88
2023/09/18 06:12:47;;;;;;;24.08;22.27;;;28.60;99.90;;;;;;4865065;29;20036;-88
2023/09/18 06:15:14;;;;;;;23.70;21.85;;;28.70;99.90;;;;;;4865301;29;20137;-89
2023/09/18 06:17:43;;;;;;;23.98;21.98;;;28.50;99.90;;;;;;4866548;29;20176;-88
2023/09/18 06:20:11;;;;;;;23.90;22.08;;;28.50;99.90;;;;;;4865443;29;20046;-88
2023/09/18 06:22:41;;;;;;;24.45;22.33;;;28.70;99.90;;;;;;4864876;29;20076;-84
2023/09/18 11:01:49;;;;;;;31.07;28.27;;;32.10;99.90;;;;;;5914853;23;21188;31
2023/09/18 11:04:20;;;;;;;30.55;28.05;;;32.10;99.90;;;;;;4809648;29;20069;-88
2023/09/18 11:06:54;;;;;;;30.88;28.35;;;32.00;99.90;;;;;;4829353;29;20063;-88
2023/09/18 11:09:22;;;;;;;31.95;28.55;;;32.20;99.90;;;;;;4814359;29;20018;-90
2023/09/18 11:12:04;;;;;;;30.58;28.05;;;32.00;99.90;;;;;;4841991;29;20030;-84
2023/09/18 11:14:56;;;;;;;30.55;27.88;;;31.90;99.90;;;;;;4818223;29;20042;-90
2023/09/18 11:17:37;;;;;;;30.40;27.90;;;32.00;99.90;;;;;;4819432;29;20063;-90
2023/09/18 11:20:20;;;;;;;30.25;27.42;;;31.90;99.90;;;;;;4823420;29;20106;-89
2023/09/18 11:22:57;;;;;;;29.77;27.08;;;32.10;99.90;;;;;;4820184;29;20035;-91
2023/09/18 11:25:47;;;;;;;30.00;27.25;;;32.00;99.90;;;;;;4822154;29;20039;-89
2023/09/18 11:28:25;;;;;;;29.60;27.02;;;31.70;99.90;;;;;;4822206;29;20115;-86
2023/09/18 11:30:58;;;;;;;29.33;26.85;;;32.10;99.90;;;;;;4808816;29;20038;-87
2023/09/18 11:33:36;;;;;;;28.98;26.95;;;31.50;99.90;;;;;;4792161;29;20034;-90
2023/09/18 11:36:06;;;;;;;30.58;27.45;;;31.70;99.90;;;;;;4792843;29;20045;-88
2023/09/18 11:38:35;;;;;;;29.48;26.67;;;31.70;99.90;;;;;;4792054;29;20034;-90
2023/09/18 11:41:25;;;;;;;28.77;26.48;;;31.60;99.90;;;;;;4792863;29;20031;-90
2023/09/18 11:43:53;;;;;;;30.52;27.58;;;31.90;99.90;;;;;;4816058;29;20036;-87
2023/09/18 11:46:21;;;;;;;29.67;27.20;;;31.90;99.90;;;;;;4826060;29;20071;-87
2023/09/18 11:48:52;;;;;;;29.77;27.10;;;31.90;99.90;;;;;;4825003;29;20083;-86
2023/09/18 11:51:23;;;;;;;31.42;28.17;;;31.80;99.90;;;;;;4824541;29;20079;-85
2023/09/18 11:53:55;;;;;;;29.27;26.90;;;31.70;99.90;;;;;;4824823;29;20065;-86
2023/09/18 11:56:22;;;;;;;30.02;27.23;;;31.80;99.90;;;;;;4809067;29;20083;-86
2023/09/18 11:58:50;;;;;;;29.65;27.05;;;31.70;99.90;;;;;;4823411;29;20073;-85
2023/09/18 12:01:18;;;;;;;30.00;26.83;;;31.60;99.90;;;;;;4812104;29;20369;-85
2023/09/18 12:03:45;;;;;;;29.83;26.88;;;31.60;99.90;;;;;;4853372;29;20065;-86
2023/09/18 12:06:15;;;;;;;30.20;27.42;;;31.60;99.90;;;;;;4841891;29;20071;-85
2023/09/18 12:08:42;;;;;;;30.48;27.55;;;31.60;99.90;;;;;;4841364;29;20490;-84
2023/09/18 12:11:08;;;;;;;29.77;27.17;;;31.70;99.90;;;;;;4841601;29;20030;-83
2023/09/18 12:13:35;;;;;;;30.80;27.80;;;31.80;99.90;;;;;;4841277;29;20110;-85
2023/09/18 12:16:06;;;;;;;30.65;27.90;;;32.00;99.90;;;;;;4841898;29;20030;-85
2023/09/18 12:18:34;;;;;;;30.35;27.48;;;31.90;99.90;;;;;;4841783;29;20033;-85
2023/09/18 12:21:05;;;;;;;30.70;27.60;;;31.70;99.90;;;;;;4841222;29;20052;-83
2023/09/18 12:23:42;;;;;;;29.83;27.23;;;31.60;99.90;;;;;;4848654;29;20083;-83
2023/09/18 12:26:20;;;;;;;30.98;27.75;;;31.60;99.90;;;;;;4842835;29;20161;-83
2023/09/18 12:28:49;;;;;;;30.75;27.83;;;31.40;99.90;;;;;;4826482;29;20098;-88
2023/09/18 12:31:31;;;;;;;30.17;27.42;;;31.60;99.90;;;;;;4841094;29;20512;-84
2023/09/18 12:34:34;;;;;;;31.42;28.38;;;31.60;99.90;;;;;;4844329;29;20064;-82
2023/09/18 12:37:06;;;;;;;30.58;27.52;;;31.70;99.90;;;;;;4845528;29;20045;-87
2023/09/18 12:39:34;;;;;;;30.00;27.27;;;31.80;99.90;;;;;;4844997;29;20472;-84
2023/09/18 12:42:01;;;;;;;30.90;28.20;;;31.70;99.90;;;;;;4846238;29;20038;-86
2023/09/18 12:44:27;;;;;;;32.05;28.70;;;31.70;99.90;;;;;;4844937;29;20037;-87
2023/09/18 12:46:54;;;;;;;31.00;27.88;;;31.70;99.90;;;;;;4832073;29;20034;-85
2023/09/18 12:49:22;;;;;;;30.38;27.35;;;31.70;99.90;;;;;;4831641;29;20033;-85
2023/09/18 12:51:59;;;;;;;31.35;27.85;;;31.40;99.90;;;;;;4862430;29;20038;-86
2023/09/18 12:54:38;;;;;;;29.67;27.42;;;31.30;99.90;;;;;;4833181;29;20098;-85
2023/09/18 12:57:09;;;;;;;31.52;28.40;;;31.50;99.90;;;;;;4831034;29;20053;-87
2023/09/18 12:59:37;;;;;;;31.90;28.73;;;31.40;99.90;;;;;;4831181;29;20506;-86
2023/09/18 13:02:05;;;;;;;31.65;28.75;;;31.60;99.90;;;;;;4830920;29;20109;-87
2023/09/18 13:04:36;;;;;;;31.80;28.73;;;31.50;99.90;;;;;;4843466;29;20043;-87
2023/09/18 13:07:13;;;;;;;31.20;28.40;;;31.40;99.90;;;;;;4848818;29;20050;-86
2023/09/18 13:09:41;;;;;;;31.33;27.80;;;31.20;99.90;;;;;;4862241;29;20033;-86
2023/09/18 13:12:08;;;;;;;31.83;28.48;;;31.10;99.90;;;;;;4827192;29;20054;-87
2023/09/18 13:15:04;;;;;;;31.13;28.30;;;31.30;99.90;;;;;;4826096;29;20034;-85
2023/09/18 13:17:45;;;;;;;30.38;27.35;;;31.30;99.90;;;;;;4827228;29;20030;-85
2023/09/18 13:20:14;;;;;;;30.67;27.83;;;31.30;99.90;;;;;;4825763;29;20169;-86
2023/09/18 13:22:42;;;;;;;30.75;27.80;;;31.30;99.90;;;;;;4829223;29;20045;-86
2023/09/18 13:25:13;;;;;;;31.42;28.15;;;31.50;99.90;;;;;;4828969;29;20038;-85
2023/09/18 13:27:39;;;;;;;31.05;28.08;;;31.50;99.90;;;;;;4859801;29;20052;-85
2023/09/18 13:30:09;;;;;;;31.05;28.25;;;31.20;99.90;;;;;;4859961;29;20026;-85
2023/09/18 13:32:36;;;;;;;31.42;27.98;;;31.10;99.90;;;;;;4843664;29;20045;-84
2023/09/18 13:35:06;;;;;;;31.75;28.65;;;31.40;99.90;;;;;;4828503;29;20033;-83
2023/09/18 13:37:34;;;;;;;31.40;28.38;;;31.20;99.90;;;;;;4828250;29;20041;-84
2023/09/18 13:40:06;;;;;;;31.60;28.55;;;31.40;99.90;;;;;;4828589;29;20049;-83
2023/09/18 13:42:33;;;;;;;33.35;28.67;;;31.40;99.90;;;;;;4828695;29;20067;-84
2023/09/18 13:45:00;;;;;;;30.95;28.35;;;31.30;99.90;;;;;;4828027;29;20507;-84
2023/09/18 13:47:28;;;;;;;33.47;29.90;;;31.20;99.90;;;;;;4827978;29;20050;-84
2023/09/18 13:49:59;;;;;;;32.92;29.55;;;31.20;99.90;;;;;;4828060;29;20061;-85
2023/09/18 13:52:27;;;;;;;33.25;30.20;;;31.10;99.90;;;;;;4844582;29;20034;-85
2023/09/18 13:54:53;;;;;;;31.65;28.55;;;31.30;99.90;;;;;;4843298;29;20396;-85
2023/09/18 13:57:21;;;;;;;33.35;29.08;;;31.30;99.90;;;;;;4843420;29;20037;-85
2023/09/18 13:59:49;;;;;;;32.10;29.27;;;31.20;99.90;;;;;;4828742;29;20053;-86
2023/09/18 14:02:16;;;;;;;35.28;29.92;;;31.20;99.90;;;;;;4828510;29;20042;-86
2023/09/18 14:04:43;;;;;;;34.20;30.40;;;31.30;99.90;;;;;;4828972;29;20034;-86
2023/09/18 14:07:11;;;;;;;32.70;29.70;;;31.20;99.90;;;;;;4836836;29;20037;-86
2023/09/18 14:09:38;;;;;;;32.45;29.17;;;31.30;99.90;;;;;;4844425;29;20038;-75
2023/09/18 14:12:09;;;;;;;36.83;29.08;;;31.10;99.90;;;;;;4846058;29;20495;-75
2023/09/18 14:14:36;;;;;;;30.73;28.00;;;31.10;99.90;;;;;;4845932;29;20082;-77
2023/09/18 14:17:04;;;;;;;33.80;28.95;;;30.90;99.90;;;;;;4845839;29;20090;-76
2023/09/18 14:19:31;;;;;;;31.35;28.48;;;30.80;99.90;;;;;;4846005;29;20058;-75
2023/09/18 14:22:03;;;;;;;31.38;28.73;;;30.90;99.90;;;;;;4846049;29;20079;-76
2023/09/18 14:24:31;;;;;;;31.85;28.67;;;30.80;99.90;;;;;;4846067;29;20038;-73
2023/09/18 14:26:57;;;;;;;30.52;27.95;;;31.00;99.90;;;;;;4846326;29;20038;-77
2023/09/18 14:29:24;;;;;;;30.98;27.90;;;30.70;99.90;;;;;;4844818;29;20054;-77
2023/09/18 14:31:52;;;;;;;31.40;28.27;;;30.90;99.90;;;;;;4827429;29;20552;-77
2023/09/18 14:34:27;;;;;;;30.75;28.10;;;30.90;99.90;;;;;;4839407;29;20036;-78
2023/09/18 14:36:54;;;;;;;31.73;28.45;;;30.70;99.90;;;;;;4825645;29;20018;-77
2023/09/18 14:39:21;;;;;;;34.13;29.33;;;30.60;99.90;;;;;;4839628;29;20034;-77
2023/09/18 14:41:49;;;;;;;33.20;29.48;;;30.60;99.90;;;;;;4824953;29;20552;-77
2023/09/18 14:44:15;;;;;;;33.97;29.48;;;30.70;99.90;;;;;;4835152;29;20038;-78
2023/09/18 14:46:43;;;;;;;32.20;29.30;;;30.50;99.90;;;;;;4844327;29;20038;-76
2023/09/18 14:49:10;;;;;;;32.85;29.65;;;30.60;99.90;;;;;;4842751;29;20034;-75
2023/09/18 14:51:37;;;;;;;31.95;28.58;;;30.60;99.90;;;;;;4843995;29;20077;-76
2023/09/18 14:54:04;;;;;;;32.72;29.00;;;30.50;99.90;;;;;;4843752;29;20033;-77
2023/09/18 14:56:31;;;;;;;33.67;29.15;;;30.70;99.90;;;;;;4843443;29;20026;-76
2023/09/18 14:58:58;;;;;;;32.17;28.70;;;30.50;99.90;;;;;;4843562;29;20030;-75
2023/09/18 15:01:24;;;;;;;33.10;29.80;;;30.60;99.90;;;;;;4842864;29;20113;-75
2023/09/18 15:03:51;;;;;;;32.58;29.27;;;30.60;99.90;;;;;;4841352;29;20064;-74
2023/09/18 15:06:18;;;;;;;32.95;29.48;;;30.60;99.90;;;;;;4842983;29;20030;-75
2023/09/18 15:08:48;;;;;;;32.65;29.00;;;30.40;99.90;;;;;;4842389;29;20041;-75
2023/09/18 15:11:19;;;;;;;;;;;30.50;99.90;;;;;;4843470;29;20061;-75
2023/09/18 15:14:03;;;;;;;33.42;30.05;;;30.30;99.90;;;;;;4842788;29;19916;-75
2023/09/18 15:16:30;;;;;;;32.15;29.30;;;30.30;99.90;;;;;;4843293;29;20022;-75
2023/09/18 15:19:02;;;;;;;32.17;28.77;;;30.30;99.90;;;;;;4826454;29;20057;-75
2023/09/18 15:21:28;;;;;;;37.72;29.60;;;30.10;99.90;;;;;;4842666;29;20049;-74
2023/09/18 15:23:54;;;;;;;32.35;29.23;;;30.10;99.90;;;;;;4842318;29;20029;-75
2023/09/18 15:26:21;;;;;;;32.55;29.33;;;30.00;99.90;;;;;;4842475;29;20387;-74
2023/09/18 15:28:47;;;;;;;30.50;27.83;;;29.80;99.90;;;;;;4842446;29;20098;-74
2023/09/18 15:31:14;;;;;;;31.60;28.45;;;29.70;99.90;;;;;;4842272;29;20026;-75
2023/09/18 15:33:41;;;;;;;35.28;29.38;;;29.80;99.90;;;;;;4841921;29;20033;-75
2023/09/18 15:36:07;;;;;;;32.60;29.17;;;29.80;99.90;;;;;;4842385;29;20030;-75
2023/09/18 15:38:34;;;;;;;39.40;29.00;;;29.60;99.90;;;;;;4842173;29;20066;-76
2023/09/18 15:41:00;;;;;;;33.35;29.67;;;29.60;99.90;;;;;;4842266;29;20464;-76
2023/09/18 15:43:28;;;;;;;45.20;30.05;;;29.60;99.90;;;;;;4842078;29;20487;-76
2023/09/18 15:45:57;;;;;;;35.97;28.92;;;29.60;99.90;;;;;;4826045;29;20392;-76
2023/09/18 15:48:24;;;;;;;36.92;30.10;;;29.60;99.90;;;;;;4842169;29;20038;-77
2023/09/18 15:50:53;;;;;;;35.40;30.10;;;29.50;99.90;;;;;;4842163;29;20041;-76
2023/09/18 15:53:21;;;;;;;39.03;31.15;;;29.40;99.90;;;;;;4842166;29;20030;-76
2023/09/18 15:55:48;;;;;;;30.58;27.38;;;29.30;99.90;;;;;;4842213;29;20105;-76
2023/09/18 15:58:14;;;;;;;38.83;28.70;;;29.20;99.90;;;;;;4810628;29;20030;-76
2023/09/18 16:00:42;;;;;;;30.55;27.45;;;29.00;99.90;;;;;;4842105;29;20540;-76
2023/09/18 16:03:08;;;;;;;31.13;27.70;;;29.10;99.90;;;;;;4840521;29;20089;-76
2023/09/18 16:05:36;;;;;;;31.00;27.40;;;29.00;99.90;;;;;;4825769;29;20476;-76
2023/09/18 16:08:04;;;;;;;30.27;27.02;;;29.00;99.90;;;;;;4842753;29;20404;-76
2023/09/18 16:10:30;;;;;;;29.52;26.58;;;28.90;99.90;;;;;;4845843;29;20038;-76
2023/09/18 16:12:58;;;;;;;29.60;26.88;;;28.80;99.90;;;;;;4845656;29;20025;-75
2023/09/18 16:15:29;;;;;;;29.33;26.23;;;28.90;99.90;;;;;;4844815;29;20034;-77
2023/09/18 16:17:58;;;;;;;28.77;26.30;;;28.70;99.90;;;;;;4845704;29;20030;-77
2023/09/18 16:20:24;;;;;;;28.08;25.88;;;28.60;99.90;;;;;;4844423;29;20033;-76
2023/09/18 16:22:50;;;;;;;28.33;26.02;;;28.50;99.90;;;;;;4844261;29;20038;-76
2023/09/18 16:25:17;;;;;;;28.65;26.25;;;28.40;99.90;;;;;;4845825;29;20032;-76
2023/09/18 16:27:43;;;;;;;28.58;26.20;;;28.40;99.90;;;;;;4845373;29;20046;-75
2023/09/18 16:30:10;;;;;;;28.33;25.65;;;28.30;99.90;;;;;;4845522;29;20026;-76
2023/09/18 16:32:38;;;;;;;28.10;25.45;;;28.20;99.90;;;;;;4828719;29;20038;-76
2023/09/18 16:35:08;;;;;;;27.38;25.42;;;28.10;99.90;;;;;;4845588;29;20029;-77
2023/09/18 16:37:35;;;;;;;28.35;26.08;;;27.90;99.90;;;;;;4846034;29;20057;-77
2023/09/18 16:40:03;;;;;;;28.25;26.02;;;27.80;99.90;;;;;;4845799;29;20052;-77
2023/09/18 16:42:32;;;;;;;28.92;26.20;;;27.80;99.90;;;;;;4845462;29;20461;-77
2023/09/18 16:45:02;;;;;;;28.17;25.75;;;27.70;99.90;;;;;;4844427;29;20029;-77
2023/09/18 16:47:31;;;;;;;28.30;25.70;;;27.70;99.90;;;;;;4845336;29;20057;-77
2023/09/18 16:49:57;;;;;;;28.60;25.95;;;27.60;99.90;;;;;;4845298;29;20045;-76
2023/09/18 16:52:24;;;;;;;27.80;25.33;;;27.50;99.90;;;;;;4845279;29;20030;-77
2023/09/18 16:54:50;;;;;;;27.90;25.38;;;27.50;99.90;;;;;;4845082;29;20504;-76
2023/09/18 16:57:17;;;;;;;27.77;25.42;;;27.40;99.90;;;;;;4845003;29;20169;-76
2023/09/18 16:59:45;;;;;;;28.02;25.42;;;27.40;99.90;;;;;;4844977;29;20062;-77
2023/09/18 17:02:14;;;;;;;27.33;25.27;;;27.30;99.90;;;;;;4844863;29;20026;-77
2023/09/18 17:04:41;;;;;;;28.15;25.38;;;27.20;99.90;;;;;;4845237;29;20519;-76
2023/09/18 17:07:08;;;;;;;27.42;25.17;;;27.10;99.90;;;;;;4828369;29;20094;-77
2023/09/18 17:09:37;;;;;;;26.27;24.33;;;27.00;99.90;;;;;;4844321;29;20073;-77
2023/09/18 17:12:13;;;;;;;27.63;25.08;;;26.90;99.90;;;;;;4845087;29;20041;-76
2023/09/18 17:14:40;;;;;;;27.83;25.38;;;26.90;99.90;;;;;;4844932;29;20037;-77
2023/09/18 17:17:12;;;;;;;28.05;25.60;;;26.80;99.90;;;;;;4829897;29;20511;-77
2023/09/18 17:19:58;;;;;;;28.23;25.60;;;26.80;99.90;;;;;;4848460;29;20087;-77
2023/09/18 17:23:41;;;;;;;27.08;25.00;;;26.80;99.90;;;;;;4843775;29;20381;-77
2023/09/18 17:27:16;;;;;;;28.17;26.10;;;26.70;99.90;;;;;;4847573;29;20171;-82
2023/09/18 17:29:43;;;;;;;32.60;29.63;;;26.60;99.90;;;;;;4846350;29;20065;-87
2023/09/18 17:32:12;;;;;;;28.30;26.00;;;26.50;99.90;;;;;;4837120;29;20150;-80
2023/09/18 17:34:39;;;;;;;28.63;26.10;;;26.40;99.90;;;;;;4841083;29;20551;-82
2023/09/18 17:37:07;;;;;;;28.25;25.90;;;26.30;99.90;;;;;;4938747;23;21157;-83
2023/09/18 17:39:35;;;;;;;27.52;24.95;;;26.20;99.90;;;;;;4887542;29;20071;-85
2023/09/18 17:42:02;;;;;;;27.05;24.65;;;26.10;99.90;;;;;;4887073;29;20029;-84
2023/09/18 17:44:29;;;;;;;26.40;24.55;;;26.00;99.90;;;;;;4886694;29;20485;-81
2023/09/18 17:46:55;;;;;;;27.17;25.08;;;25.90;99.90;;;;;;4924893;29;20092;-82
2023/09/18 17:49:57;;;;;;;26.88;24.77;;;25.80;99.90;;;;;;4893036;29;20043;-82
2023/09/18 17:53:14;;;;;;;27.42;24.98;;;25.80;99.90;;;;;;4892187;29;20036;-82
2023/09/18 17:55:44;;;;;;;27.75;25.15;;;25.80;99.90;;;;;;4906456;29;20042;-83
2023/09/18 17:58:12;;;;;;;28.35;25.90;;;25.80;99.90;;;;;;4883821;29;20051;-82
2023/09/18 18:00:41;;;;;;;27.65;25.42;;;25.80;99.90;;;;;;4919961;29;20663;-82
2023/09/18 18:03:09;;;;;;;28.08;25.52;;;25.80;99.90;;;;;;4887927;29;20035;-82
2023/09/18 18:05:36;;;;;;;27.83;25.30;;;25.80;99.90;;;;;;4903604;29;20032;-82
2023/09/18 18:08:03;;;;;;;27.05;24.85;;;25.70;99.90;;;;;;4900629;29;20037;-83
2023/09/18 18:10:31;;;;;;;28.10;25.42;;;25.70;99.90;;;;;;4888189;29;20033;-82
2023/09/18 18:12:57;;;;;;;27.95;25.58;;;25.60;99.90;;;;;;4884945;29;20379;-83
2023/09/18 18:15:24;;;;;;;27.05;24.85;;;25.50;99.90;;;;;;4884038;29;20059;-83
2023/09/18 18:17:52;;;;;;;27.10;24.63;;;25.40;99.90;;;;;;4901356;29;20056;-82
2023/09/18 18:20:19;;;;;;;27.30;24.88;;;25.40;99.90;;;;;;4914097;29;20057;-83
2023/09/18 18:22:47;;;;;;;27.38;24.65;;;25.40;99.90;;;;;;4894262;29;20493;-83
2023/09/18 18:25:15;;;;;;;28.02;25.55;;;25.40;99.90;;;;;;4880950;29;20041;-83
2023/09/18 18:27:51;;;;;;;26.80;24.60;;;25.20;99.90;;;;;;4867866;29;20485;-83
2023/09/18 18:30:21;;;;;;;26.85;24.55;;;25.20;99.90;;;;;;4883139;29;20024;-81
2023/09/18 18:32:47;;;;;;;27.73;25.15;;;25.10;99.90;;;;;;4880825;29;20383;-82
2023/09/18 18:35:18;;;;;;;28.13;25.70;;;25.10;99.90;;;;;;4897011;29;20051;-83
2023/09/18 18:37:46;;;;;;;26.35;24.02;;;25.10;99.90;;;;;;4885189;29;20080;-81
2023/09/18 18:40:14;;;;;;;27.83;24.95;;;25.10;99.90;;;;;;4882417;29;20033;-81
2023/09/18 18:42:41;;;;;;;26.27;23.98;;;25.00;99.90;;;;;;4898723;29;20024;-85
2023/09/18 18:45:08;;;;;;;27.77;25.30;;;25.00;99.90;;;;;;4898275;29;20029;-80
2023/09/18 18:47:34;;;;;;;28.95;26.05;;;25.00;99.90;;;;;;4899614;29;20040;-79
2023/09/18 18:50:01;;;;;;;27.08;24.27;;;25.00;99.90;;;;;;4898206;29;20036;-82
2023/09/18 18:52:27;;;;;;;27.83;25.02;;;24.90;99.90;;;;;;4900466;29;20111;-81
2023/09/18 18:54:55;;;;;;;26.92;24.48;;;24.90;99.90;;;;;;4898120;29;20031;-82
2023/09/18 18:57:24;;;;;;;27.88;25.00;;;24.90;99.90;;;;;;4897515;29;20036;-81
2023/09/18 18:59:53;;;;;;;27.35;25.00;;;24.80;99.90;;;;;;4882308;29;20438;-80
2023/09/18 19:02:25;;;;;;;28.17;25.58;;;24.70;99.90;;;;;;4898989;29;20037;-80
2023/09/18 19:04:51;;;;;;;29.08;25.67;;;24.70;99.90;;;;;;4881969;29;20027;-82
2023/09/18 19:07:21;;;;;;;27.70;25.40;;;24.70;99.90;;;;;;4898874;29;20025;-80
2023/09/18 19:09:49;;;;;;;29.52;26.35;;;24.60;99.90;;;;;;4897755;29;20033;-82
2023/09/18 19:12:15;;;;;;;29.50;26.50;;;24.70;99.90;;;;;;4897270;29;20389;-80
2023/09/18 19:14:42;;;;;;;29.77;26.65;;;24.70;99.90;;;;;;4898060;29;20032;-81
2023/09/18 19:17:09;;;;;;;29.98;27.20;;;24.60;99.90;;;;;;4898346;29;20423;-83
2023/09/18 19:19:35;;;;;;;30.42;27.17;;;24.40;99.90;;;;;;4893956;29;20469;-82
2023/09/18 19:22:01;;;;;;;29.40;26.50;;;24.40;99.90;;;;;;4894546;29;20033;-83
2023/09/18 19:24:28;;;;;;;29.38;26.75;;;24.20;99.90;;;;;;4897211;29;20029;-81
2023/09/18 19:26:55;;;;;;;29.23;26.73;;;24.20;99.90;;;;;;4897490;29;20035;-81
2023/09/18 19:29:21;;;;;;;30.20;27.20;;;24.10;99.90;;;;;;4897431;29;20438;-81
2023/09/18 19:31:49;;;;;;;29.13;26.42;;;24.00;99.90;;;;;;4884368;29;20020;-79
2023/09/18 19:34:16;;;;;;;27.92;24.92;;;24.00;99.90;;;;;;4900848;29;20036;-81
2023/09/18 19:36:44;;;;;;;29.90;25.58;;;23.90;99.90;;;;;;4898942;29;20031;-80
2023/09/18 19:39:11;;;;;;;28.48;25.58;;;23.90;99.90;;;;;;4898761;29;20106;-80
2023/09/18 19:41:38;;;;;;;28.10;24.83;;;23.80;99.90;;;;;;4899979;29;20024;-81
2023/09/18 19:44:06;;;;;;;28.80;25.85;;;23.80;99.90;;;;;;4900206;29;20029;-81
2023/09/18 19:46:35;;;;;;;29.27;26.13;;;23.70;99.90;;;;;;4899070;29;20405;-81
2023/09/18 19:49:05;;;;;;;30.13;26.17;;;23.70;99.90;;;;;;4898692;29;20120;-81
2023/09/18 19:51:32;;;;;;;30.80;25.73;;;23.80;99.90;;;;;;4899035;29;20024;-81
2023/09/18 19:53:59;;;;;;;29.48;26.08;;;23.60;99.90;;;;;;4882906;29;20040;-81
2023/09/18 19:56:28;;;;;;;32.92;25.98;;;23.60;99.90;;;;;;4897206;29;20032;-80
2023/09/18 19:58:55;;;;;;;28.13;25.15;;;23.70;99.90;;;;;;4899382;29;20060;-81
2023/09/18 20:01:22;;;;;;;30.60;24.27;;;23.70;99.90;;;;;;4882455;29;20478;-83
2023/09/18 20:03:51;;;;;;;27.40;24.55;;;23.70;99.90;;;;;;4897943;29;20048;-82
2023/09/18 20:06:18;;;;;;;27.20;24.33;;;23.70;99.90;;;;;;4904237;29;20032;-82
2023/09/18 20:08:44;;;;;;;28.27;25.23;;;23.70;99.90;;;;;;4908799;29;20036;-81
2023/09/18 20:11:11;;;;;;;28.10;25.10;;;23.60;99.90;;;;;;4882065;29;20120;-82
2023/09/18 20:13:39;;;;;;;27.90;24.38;;;23.60;99.90;;;;;;4896576;29;20033;-85
2023/09/18 20:16:06;;;;;;;27.23;24.42;;;23.60;99.90;;;;;;4892408;29;20506;-85
2023/09/18 20:18:33;;;;;;;26.45;23.75;;;23.50;99.90;;;;;;4884620;29;20033;-85
2023/09/18 20:21:01;;;;;;;26.63;23.92;;;23.50;99.90;;;;;;4894896;29;20134;-85
2023/09/18 20:23:29;;;;;;;27.10;24.23;;;23.30;99.90;;;;;;4893786;29;20029;-84
2023/09/18 20:25:56;;;;;;;26.35;23.80;;;23.30;99.90;;;;;;4896832;29;20442;-83
2023/09/18 20:28:23;;;;;;;25.00;22.30;;;23.30;99.90;;;;;;4885010;29;20036;-83
2023/09/18 20:30:53;;;;;;;29.65;22.80;;;23.20;99.90;;;;;;4897648;29;20039;-83
2023/09/18 20:33:19;;;;;;;24.73;21.90;;;23.30;99.90;;;;;;4899083;29;20382;-84
2023/09/18 20:35:45;;;;;;;24.92;22.55;;;23.30;99.90;;;;;;4897178;29;20116;-84
2023/09/18 20:38:12;;;;;;;24.48;21.98;;;23.30;99.90;;;;;;4897583;29;20052;-83
2023/09/18 20:40:40;;;;;;;23.98;21.70;;;23.30;99.90;;;;;;4898277;29;20048;-81
2023/09/18 20:43:07;;;;;;;24.10;21.77;;;23.30;99.90;;;;;;4897829;29;20084;-81
2023/09/18 20:45:35;;;;;;;26.58;22.33;;;23.30;99.90;;;;;;4897303;29;20028;-81
2023/09/18 20:48:01;;;;;;;27.30;21.30;;;23.20;99.90;;;;;;4897090;29;20112;-82
2023/09/18 20:50:28;;;;;;;23.60;21.50;;;23.10;99.90;;;;;;4881174;29;20036;-81
2023/09/18 20:52:55;;;;;;;26.55;21.98;;;23.10;99.90;;;;;;4896885;29;20110;-82
2023/09/18 20:55:22;;;;;;;24.25;21.92;;;23.10;99.90;;;;;;4883522;29;20057;-82
2023/09/18 20:57:48;;;;;;;28.02;21.35;;;23.10;99.90;;;;;;4883749;29;20035;-82
2023/09/18 21:00:17;;;;;;;27.10;20.88;;;23.00;99.90;;;;;;4868757;29;20121;-84
2023/09/18 21:02:47;;;;;;;23.77;20.63;;;22.90;99.90;;;;;;4884171;29;20032;-82
2023/09/18 21:05:16;;;;;;;30.17;21.45;;;22.90;99.90;;;;;;4883885;29;20028;-83
2023/09/18 21:07:44;;;;;;;25.85;19.83;;;22.90;99.90;;;;;;4898951;29;20494;-81
2023/09/18 21:10:11;;;;;;;21.83;19.52;;;23.00;99.90;;;;;;4884129;29;20504;-81
2023/09/18 21:12:38;;;;;;;21.88;19.77;;;23.10;99.90;;;;;;4900382;29;20390;-82
2023/09/18 21:15:07;;;;;;;23.77;19.45;;;23.10;99.90;;;;;;4901007;29;20057;-82
2023/09/18 21:17:34;;;;;;;21.27;19.17;;;23.10;99.90;;;;;;4883319;29;20032;-82
2023/09/18 21:20:01;;;;;;;22.40;19.70;;;23.10;99.90;;;;;;4900830;29;20029;-82
2023/09/18 21:22:28;;;;;;;23.02;20.30;;;23.10;99.90;;;;;;4884050;29;20433;-83
2023/09/18 21:24:55;;;;;;;23.85;20.02;;;23.10;99.90;;;;;;4883747;29;20063;-82
2023/09/18 21:27:27;;;;;;;22.70;19.65;;;23.20;99.90;;;;;;4900376;29;20028;-82
2023/09/18 21:29:58;;;;;;;23.20;20.95;;;23.10;99.90;;;;;;4884191;29;20081;-80
2023/09/18 21:32:25;;;;;;;21.83;19.77;;;23.10;99.90;;;;;;4900673;29;20603;-83
2023/09/18 21:34:52;;;;;;;28.10;20.27;;;23.10;99.90;;;;;;4883716;29;20383;-82
2023/09/18 21:37:19;;;;;;;23.88;19.95;;;23.20;99.90;;;;;;4900121;29;20041;-82
2023/09/18 21:39:45;;;;;;;29.55;20.63;;;23.20;99.90;;;;;;4883766;29;20041;-81
2023/09/18 21:42:12;;;;;;;24.90;20.60;;;23.20;99.90;;;;;;4883582;29;20043;-81
2023/09/18 21:44:39;;;;;;;30.38;20.52;;;23.20;99.90;;;;;;4899042;29;20415;-82
2023/09/18 21:47:10;;;;;;;24.75;19.55;;;23.20;99.90;;;;;;4882139;29;20051;-82
2023/09/18 21:49:39;;;;;;;24.85;20.15;;;23.20;99.90;;;;;;4883119;29;20033;-81
2023/09/18 21:52:07;;;;;;;22.92;20.70;;;23.20;99.90;;;;;;4883270;29;20028;-81
2023/09/18 21:54:34;;;;;;;22.27;19.95;;;23.20;99.90;;;;;;4883321;29;20065;-82
2023/09/18 21:57:00;;;;;;;28.77;20.75;;;23.10;99.90;;;;;;4882721;29;20029;-82
2023/09/18 21:59:27;;;;;;;23.92;20.40;;;23.10;99.90;;;;;;4882924;29;20525;-82
2023/09/18 22:01:54;;;;;;;24.92;21.10;;;23.10;99.90;;;;;;4883261;29;20085;-82
2023/09/18 22:04:21;;;;;;;23.10;20.48;;;23.10;99.90;;;;;;4882934;29;20038;-84
2023/09/18 22:06:48;;;;;;;22.25;20.02;;;23.10;99.90;;;;;;4886878;29;20025;-83
2023/09/18 22:09:15;;;;;;;23.05;20.48;;;23.10;99.90;;;;;;4902409;29;20258;-84
2023/09/18 22:11:44;;;;;;;23.10;20.63;;;23.00;99.90;;;;;;4868456;29;20021;-84